createdAt,value
2018-12-13T00:00:45.802Z,1020.57
2018-12-13T00:01:45.789Z,1020.56
2018-12-13T00:02:45.813Z,1020.54
2018-12-13T00:03:45.792Z,1020.51
2018-12-13T00:04:45.788Z,1020.48
2018-12-13T00:05:45.773Z,1020.53
2018-12-13T00:06:45.756Z,1020.55
2018-12-13T00:07:45.754Z,1020.51
2018-12-13T00:08:45.736Z,1020.48
2018-12-13T00:09:45.720Z,1020.45
2018-12-13T00:10:45.715Z,1020.47
2018-12-13T00:11:45.702Z,1020.44
2018-12-13T00:12:45.693Z,1020.44
2018-12-13T00:13:45.684Z,1020.40
2018-12-13T00:14:45.670Z,1020.43
2018-12-13T00:15:45.662Z,1020.42
2018-12-13T00:16:45.651Z,1020.42
2018-12-13T00:17:45.621Z,1020.42
2018-12-13T00:18:45.604Z,1020.44
2018-12-13T00:19:45.594Z,1020.42
2018-12-13T00:20:45.582Z,1020.44
2018-12-13T00:21:45.631Z,1020.45
2018-12-13T00:22:45.561Z,1020.40
2018-12-13T00:23:45.579Z,1020.42
2018-12-13T00:24:45.540Z,1020.41
2018-12-13T00:25:45.527Z,1020.42
2018-12-13T00:26:45.517Z,1020.45
2018-12-13T00:27:45.505Z,1020.41
2018-12-13T00:28:45.495Z,1020.45
2018-12-13T00:29:45.488Z,1020.43
2018-12-13T00:30:45.477Z,1020.42
2018-12-13T00:31:45.464Z,1020.47
2018-12-13T00:32:45.452Z,1020.40
2018-12-13T00:33:45.445Z,1020.41
2018-12-13T00:34:45.436Z,1020.43
2018-12-13T00:35:45.421Z,1020.47
2018-12-13T00:36:45.407Z,1020.45
2018-12-13T00:37:45.398Z,1020.45
2018-12-13T00:38:45.386Z,1020.45
2018-12-13T00:39:45.375Z,1020.43
2018-12-13T00:40:45.364Z,1020.45
2018-12-13T00:41:45.354Z,1020.48
2018-12-13T00:42:45.376Z,1020.51
2018-12-13T00:43:45.331Z,1020.48
2018-12-13T00:44:45.325Z,1020.43
2018-12-13T00:45:45.312Z,1020.42
2018-12-13T00:46:45.301Z,1020.46
2018-12-13T00:47:45.288Z,1020.41
2018-12-13T00:48:45.281Z,1020.44
2018-12-13T00:49:45.267Z,1020.42
2018-12-13T00:50:45.259Z,1020.44
2018-12-13T00:51:45.249Z,1020.44
2018-12-13T00:52:45.238Z,1020.46
2018-12-13T00:53:45.223Z,1020.46
2018-12-13T00:54:45.212Z,1020.43
2018-12-13T00:55:45.205Z,1020.41
2018-12-13T00:56:45.190Z,1020.45
2018-12-13T00:57:45.180Z,1020.45
2018-12-13T00:58:45.170Z,1020.40
2018-12-13T00:59:45.158Z,1020.44
2018-12-13T01:00:45.150Z,1020.49
2018-12-13T01:01:45.137Z,1020.45
2018-12-13T01:02:45.127Z,1020.46
2018-12-13T01:03:45.117Z,1020.48
2018-12-13T01:04:45.105Z,1020.53
2018-12-13T01:05:45.093Z,1020.45
2018-12-13T01:06:46.077Z,1020.46
2018-12-13T01:07:45.072Z,1020.45
2018-12-13T01:08:45.063Z,1020.46
2018-12-13T01:09:45.055Z,1020.49
2018-12-13T01:10:45.040Z,1020.48
2018-12-13T01:11:45.029Z,1020.48
2018-12-13T01:12:45.022Z,1020.46
2018-12-13T01:13:45.016Z,1020.50
2018-12-13T01:14:44.996Z,1020.48
2018-12-13T01:15:44.985Z,1020.48
2018-12-13T01:16:44.976Z,1020.45
2018-12-13T01:17:44.966Z,1020.47
2018-12-13T01:18:44.952Z,1020.45
2018-12-13T01:19:44.941Z,1020.45
2018-12-13T01:20:44.936Z,1020.43
2018-12-13T01:21:44.919Z,1020.46
2018-12-13T01:22:44.910Z,1020.42
2018-12-13T01:23:44.898Z,1020.41
2018-12-13T01:24:44.887Z,1020.39
2018-12-13T01:25:44.877Z,1020.41
2018-12-13T01:26:44.871Z,1020.36
2018-12-13T01:27:44.854Z,1020.38
2018-12-13T01:28:44.846Z,1020.37
2018-12-13T01:29:44.836Z,1020.35
2018-12-13T01:30:44.825Z,1020.38
2018-12-13T01:31:44.811Z,1020.36
2018-12-13T01:32:44.802Z,1020.35
2018-12-13T01:33:44.789Z,1020.33
2018-12-13T01:34:44.780Z,1020.34
2018-12-13T01:35:44.768Z,1020.32
2018-12-13T01:36:44.756Z,1020.31
2018-12-13T01:37:44.746Z,1020.28
2018-12-13T01:38:44.739Z,1020.29
2018-12-13T01:39:44.725Z,1020.26
2018-12-13T01:40:44.716Z,1020.29
2018-12-13T01:41:44.702Z,1020.24
2018-12-13T01:42:44.693Z,1020.27
2018-12-13T01:43:44.687Z,1020.22
2018-12-13T01:44:44.670Z,1020.23
2018-12-13T01:46:04.286Z,1020.18
2018-12-13T01:47:27.714Z,1020.20
2018-12-13T01:48:27.703Z,1020.23
2018-12-13T01:49:27.691Z,1020.22
2018-12-13T01:50:27.686Z,1020.24
2018-12-13T01:51:27.669Z,1020.27
2018-12-13T01:52:27.663Z,1020.27
2018-12-13T01:53:27.647Z,1020.26
2018-12-13T01:54:27.638Z,1020.25
2018-12-13T01:55:27.628Z,1020.27
2018-12-13T01:56:27.614Z,1020.21
2018-12-13T01:57:27.603Z,1020.24
2018-12-13T01:58:27.593Z,1020.23
2018-12-13T01:59:27.585Z,1020.25
2018-12-13T02:00:27.571Z,1020.24
2018-12-13T02:01:27.559Z,1020.25
2018-12-13T02:02:27.548Z,1020.22
2018-12-13T02:03:27.540Z,1020.18
2018-12-13T02:04:27.544Z,1020.23
2018-12-13T02:05:27.515Z,1020.22
2018-12-13T02:06:27.508Z,1020.18
2018-12-13T02:07:27.495Z,1020.19
2018-12-13T02:08:27.485Z,1020.25
2018-12-13T02:09:27.478Z,1020.23
2018-12-13T02:10:27.461Z,1020.18
2018-12-13T02:11:27.450Z,1020.15
2018-12-13T02:12:27.441Z,1020.19
2018-12-13T02:13:27.429Z,1020.17
2018-12-13T02:14:27.425Z,1020.14
2018-12-13T02:15:27.411Z,1020.16
2018-12-13T02:16:27.397Z,1020.16
2018-12-13T02:17:27.388Z,1020.12
2018-12-13T02:18:27.375Z,1020.17
2018-12-13T02:19:27.365Z,1020.13
2018-12-13T02:20:27.353Z,1020.15
2018-12-13T02:21:27.347Z,1020.19
2018-12-13T02:22:27.333Z,1020.14
2018-12-13T02:23:27.320Z,1020.11
2018-12-13T02:24:27.310Z,1020.10
2018-12-13T02:25:27.299Z,1020.08
2018-12-13T02:26:27.289Z,1020.11
2018-12-13T02:27:27.282Z,1020.08
2018-12-13T02:28:27.267Z,1020.09
2018-12-13T02:29:27.256Z,1020.12
2018-12-13T02:30:27.245Z,1020.06
2018-12-13T02:31:27.240Z,1020.08
2018-12-13T02:32:27.228Z,1020.07
2018-12-13T02:33:27.212Z,1020.08
2018-12-13T02:34:27.202Z,1020.08
2018-12-13T02:35:27.191Z,1020.06
2018-12-13T02:36:27.179Z,1020.06
2018-12-13T02:37:27.170Z,1020.06
2018-12-13T02:38:27.158Z,1020.00
2018-12-13T02:39:27.154Z,1019.97
2018-12-13T02:40:27.135Z,1020.03
2018-12-13T02:41:27.127Z,1020.01
2018-12-13T02:42:27.118Z,1020.05
2018-12-13T02:43:27.103Z,1020.06
2018-12-13T02:44:27.098Z,1020.04
2018-12-13T02:45:27.092Z,1020.07
2018-12-13T02:46:27.103Z,1020.11
2018-12-13T02:47:27.094Z,1020.07
2018-12-13T02:48:27.049Z,1020.09
2018-12-13T02:49:27.044Z,1020.07
2018-12-13T02:50:27.037Z,1020.11
2018-12-13T02:51:27.020Z,1020.09
2018-12-13T02:52:27.009Z,1020.09
2018-12-13T02:53:26.997Z,1020.10
2018-12-13T02:54:26.988Z,1020.08
2018-12-13T02:55:26.982Z,1020.09
2018-12-13T02:56:26.961Z,1020.05
2018-12-13T02:57:26.951Z,1020.08
2018-12-13T02:58:26.943Z,1020.08
2018-12-13T02:59:26.930Z,1020.09
2018-12-13T03:00:26.930Z,1020.07
2018-12-13T03:01:26.912Z,1020.05
2018-12-13T03:02:26.897Z,1020.01
2018-12-13T03:03:26.886Z,1020.01
2018-12-13T03:04:26.876Z,1020.05
2018-12-13T03:05:26.865Z,1020.02
2018-12-13T03:06:26.857Z,1019.98
2018-12-13T03:07:26.845Z,1020.02
2018-12-13T03:08:26.833Z,1019.99
2018-12-13T03:09:26.823Z,1020.03
2018-12-13T03:10:26.810Z,1019.98
2018-12-13T03:11:26.804Z,1020.00
2018-12-13T03:12:26.793Z,1019.99
2018-12-13T03:13:26.777Z,1019.97
2018-12-13T03:14:26.766Z,1019.99
2018-12-13T03:15:26.759Z,1019.97
2018-12-13T03:16:26.745Z,1019.96
2018-12-13T03:17:26.740Z,1019.97
2018-12-13T03:18:26.729Z,1019.97
2018-12-13T03:19:26.731Z,1019.99
2018-12-13T03:20:26.701Z,1019.97
2018-12-13T03:21:26.690Z,1020.00
2018-12-13T03:22:26.680Z,1020.00
2018-12-13T03:23:26.671Z,1020.00
2018-12-13T03:24:26.658Z,1019.99
2018-12-13T03:25:26.650Z,1019.99
2018-12-13T03:26:26.636Z,1019.95
2018-12-13T03:27:26.626Z,1020.00
2018-12-13T03:28:26.617Z,1019.94
2018-12-13T03:29:26.606Z,1019.94
2018-12-13T03:30:26.595Z,1019.90
2018-12-13T03:31:26.584Z,1019.89
2018-12-13T03:32:26.574Z,1019.91
2018-12-13T03:33:26.564Z,1019.89
2018-12-13T03:34:26.552Z,1019.92
2018-12-13T03:35:26.544Z,1019.92
2018-12-13T03:36:26.529Z,1019.97
2018-12-13T03:37:26.521Z,1019.93
2018-12-13T03:38:26.505Z,1019.90
2018-12-13T03:39:26.502Z,1019.90
2018-12-13T03:40:26.491Z,1019.91
2018-12-13T03:41:26.481Z,1019.88
2018-12-13T03:42:26.465Z,1019.86
2018-12-13T03:43:26.453Z,1019.84
2018-12-13T03:44:26.444Z,1019.86
2018-12-13T03:45:26.433Z,1019.85
2018-12-13T03:46:26.421Z,1019.84
2018-12-13T03:47:26.407Z,1019.79
2018-12-13T03:48:26.397Z,1019.76
2018-12-13T03:49:26.387Z,1019.76
2018-12-13T03:50:26.375Z,1019.80
2018-12-13T03:51:26.366Z,1019.75
2018-12-13T03:52:26.357Z,1019.78
2018-12-13T03:53:26.343Z,1019.78
2018-12-13T03:54:26.334Z,1019.76
2018-12-13T03:55:26.321Z,1019.77
2018-12-13T03:56:26.309Z,1019.76
2018-12-13T03:57:26.303Z,1019.76
2018-12-13T03:58:26.293Z,1019.71
2018-12-13T03:59:26.285Z,1019.74
2018-12-13T04:00:26.266Z,1019.74
2018-12-13T04:01:26.256Z,1019.75
2018-12-13T04:02:26.246Z,1019.77
2018-12-13T04:03:26.235Z,1019.78
2018-12-13T04:04:26.223Z,1019.74
2018-12-13T04:05:26.211Z,1019.75
2018-12-13T04:06:26.201Z,1019.71
2018-12-13T04:07:27.830Z,1019.73
2018-12-13T04:08:26.180Z,1019.77
2018-12-13T04:09:26.172Z,1019.76
2018-12-13T04:10:26.158Z,1019.78
2018-12-13T04:11:26.148Z,1019.69
2018-12-13T04:12:26.137Z,1019.69
2018-12-13T04:13:26.127Z,1019.69
2018-12-13T04:14:26.115Z,1019.67
2018-12-13T04:15:26.107Z,1019.64
2018-12-13T04:16:26.095Z,1019.66
2018-12-13T04:17:26.084Z,1019.63
2018-12-13T04:18:26.070Z,1019.60
2018-12-13T04:19:26.063Z,1019.62
2018-12-13T04:20:26.054Z,1019.60
2018-12-13T04:21:26.039Z,1019.64
2018-12-13T04:22:26.027Z,1019.62
2018-12-13T04:23:26.014Z,1019.58
2018-12-13T04:24:26.004Z,1019.58
2018-12-13T04:25:25.994Z,1019.61
2018-12-13T04:26:25.984Z,1019.65
2018-12-13T04:27:25.971Z,1019.64
2018-12-13T04:28:46.596Z,1019.65
2018-12-13T04:29:56.931Z,1019.66
2018-12-13T04:33:52.314Z,1019.70
2018-12-13T04:34:52.274Z,1019.62
2018-12-13T04:35:52.271Z,1019.65
2018-12-13T04:36:52.255Z,1019.59
2018-12-13T04:37:52.242Z,1019.63
2018-12-13T04:38:52.231Z,1019.58
2018-12-13T04:39:52.222Z,1019.55
2018-12-13T04:40:52.209Z,1019.60
2018-12-13T04:41:52.200Z,1019.58
2018-12-13T04:42:52.190Z,1019.66
2018-12-13T04:43:52.176Z,1019.68
2018-12-13T04:44:52.167Z,1019.78
2018-12-13T04:45:52.154Z,1019.75
2018-12-13T04:46:52.146Z,1019.71
2018-12-13T04:47:52.135Z,1019.67
2018-12-13T04:48:52.121Z,1019.61
2018-12-13T04:49:52.113Z,1019.60
2018-12-13T04:50:52.101Z,1019.61
2018-12-13T04:51:52.094Z,1019.63
2018-12-13T04:52:52.085Z,1019.68
2018-12-13T04:53:52.069Z,1019.66
2018-12-13T04:54:52.059Z,1019.61
2018-12-13T04:55:52.048Z,1019.62
2018-12-13T04:56:52.036Z,1019.62
2018-12-13T04:57:52.027Z,1019.58
2018-12-13T04:58:52.015Z,1019.55
2018-12-13T04:59:52.004Z,1019.53
2018-12-13T05:00:51.992Z,1019.60
2018-12-13T05:01:51.986Z,1019.63
2018-12-13T05:02:51.978Z,1019.59
2018-12-13T05:03:51.959Z,1019.60
2018-12-13T05:04:51.954Z,1019.64
2018-12-13T05:05:51.938Z,1019.63
2018-12-13T05:06:51.929Z,1019.60
2018-12-13T05:07:51.916Z,1019.56
2018-12-13T05:08:51.904Z,1019.57
2018-12-13T05:09:51.902Z,1019.53
2018-12-13T05:10:51.883Z,1019.50
2018-12-13T05:11:51.872Z,1019.51
2018-12-13T05:12:51.863Z,1019.50
2018-12-13T05:13:51.852Z,1019.51
2018-12-13T05:14:51.840Z,1019.47
2018-12-13T05:15:51.828Z,1019.46
2018-12-13T05:16:51.817Z,1019.48
2018-12-13T05:17:51.809Z,1019.47
2018-12-13T05:18:51.796Z,1019.45
2018-12-13T05:19:51.786Z,1019.48
2018-12-13T05:20:51.776Z,1019.51
2018-12-13T05:21:51.769Z,1019.47
2018-12-13T05:22:51.754Z,1019.45
2018-12-13T05:23:51.743Z,1019.44
2018-12-13T05:24:51.731Z,1019.48
2018-12-13T05:25:51.722Z,1019.45
2018-12-13T05:26:51.712Z,1019.41
2018-12-13T05:27:51.702Z,1019.43
2018-12-13T05:28:51.694Z,1019.44
2018-12-13T05:29:51.677Z,1019.47
2018-12-13T05:30:51.667Z,1019.47
2018-12-13T05:31:51.655Z,1019.48
2018-12-13T05:32:51.648Z,1019.43
2018-12-13T05:33:51.637Z,1019.44
2018-12-13T05:34:51.622Z,1019.43
2018-12-13T05:35:51.613Z,1019.48
2018-12-13T05:36:51.604Z,1019.45
2018-12-13T05:37:51.591Z,1019.45
2018-12-13T05:38:51.581Z,1019.45
2018-12-13T05:39:51.568Z,1019.41
2018-12-13T05:40:51.559Z,1019.45
2018-12-13T05:41:51.547Z,1019.42
2018-12-13T05:42:51.535Z,1019.43
2018-12-13T05:43:51.527Z,1019.42
2018-12-13T05:44:51.517Z,1019.43
2018-12-13T05:45:51.503Z,1019.40
2018-12-13T05:46:51.494Z,1019.42
2018-12-13T05:47:51.482Z,1019.37
2018-12-13T05:48:51.471Z,1019.36
2018-12-13T05:49:51.461Z,1019.33
2018-12-13T05:50:51.448Z,1019.30
2018-12-13T05:51:51.437Z,1019.29
2018-12-13T05:52:51.430Z,1019.24
2018-12-13T05:53:51.416Z,1019.30
2018-12-13T05:54:51.405Z,1019.28
2018-12-13T05:55:51.406Z,1019.26
2018-12-13T05:56:51.383Z,1019.24
2018-12-13T05:57:51.381Z,1019.27
2018-12-13T05:58:51.366Z,1019.24
2018-12-13T05:59:51.352Z,1019.20
2018-12-13T06:00:51.342Z,1019.21
2018-12-13T06:01:51.400Z,1019.22
2018-12-13T06:02:51.321Z,1019.23
2018-12-13T06:03:51.309Z,1019.24
2018-12-13T06:04:51.296Z,1019.20
2018-12-13T06:05:51.286Z,1019.22
2018-12-13T06:06:51.274Z,1019.22
2018-12-13T06:07:54.865Z,1019.20
2018-12-13T06:08:51.255Z,1019.21
2018-12-13T06:09:51.248Z,1019.30
2018-12-13T06:10:51.232Z,1019.26
2018-12-13T06:11:51.223Z,1019.28
2018-12-13T06:12:51.212Z,1019.32
2018-12-13T06:13:51.232Z,1019.32
2018-12-13T06:14:51.187Z,1019.37
2018-12-13T06:15:51.176Z,1019.38
2018-12-13T06:16:51.168Z,1019.36
2018-12-13T06:17:51.158Z,1019.40
2018-12-13T06:18:51.151Z,1019.43
2018-12-13T06:19:51.133Z,1019.44
2018-12-13T06:20:51.123Z,1019.39
2018-12-13T06:21:51.114Z,1019.42
2018-12-13T06:22:51.102Z,1019.39
2018-12-13T06:23:51.096Z,1019.37
2018-12-13T06:24:51.079Z,1019.34
2018-12-13T06:25:51.073Z,1019.36
2018-12-13T06:26:51.057Z,1019.32
2018-12-13T06:27:51.047Z,1019.36
2018-12-13T06:28:51.039Z,1019.37
2018-12-13T06:29:51.034Z,1019.34
2018-12-13T06:30:51.016Z,1019.41
2018-12-13T06:31:51.004Z,1019.40
2018-12-13T06:32:50.992Z,1019.42
2018-12-13T06:33:50.984Z,1019.43
2018-12-13T06:34:50.970Z,1019.40
2018-12-13T06:35:50.972Z,1019.42
2018-12-13T06:36:50.949Z,1019.40
2018-12-13T06:37:50.939Z,1019.46
2018-12-13T06:38:50.927Z,1019.39
2018-12-13T06:39:50.919Z,1019.36
2018-12-13T06:40:50.911Z,1019.39
2018-12-13T06:41:50.900Z,1019.42
2018-12-13T06:42:50.885Z,1019.35
2018-12-13T06:43:52.284Z,1019.35
2018-12-13T06:44:50.863Z,1019.38
2018-12-13T06:45:50.857Z,1019.39
2018-12-13T06:46:50.842Z,1019.35
2018-12-13T06:47:50.832Z,1019.38
2018-12-13T06:48:50.819Z,1019.38
2018-12-13T06:49:50.807Z,1019.35
2018-12-13T06:50:50.796Z,1019.36
2018-12-13T06:51:50.789Z,1019.42
2018-12-13T06:52:50.778Z,1019.40
2018-12-13T06:53:50.764Z,1019.34
2018-12-13T06:54:50.754Z,1019.36
2018-12-13T06:55:50.742Z,1019.35
2018-12-13T06:56:50.731Z,1019.39
2018-12-13T06:57:50.724Z,1019.44
2018-12-13T06:58:50.729Z,1019.41
2018-12-13T06:59:50.700Z,1019.45
2018-12-13T07:00:50.688Z,1019.44
2018-12-13T07:01:50.677Z,1019.39
2018-12-13T07:02:50.669Z,1019.40
2018-12-13T07:03:50.657Z,1019.40
2018-12-13T07:04:50.646Z,1019.39
2018-12-13T07:05:50.632Z,1019.34
2018-12-13T07:06:50.622Z,1019.33
2018-12-13T07:07:50.613Z,1019.32
2018-12-13T07:08:50.603Z,1019.28
2018-12-13T07:09:50.592Z,1019.31
2018-12-13T07:10:50.581Z,1019.25
2018-12-13T07:11:50.569Z,1019.25
2018-12-13T07:12:50.558Z,1019.26
2018-12-13T07:13:50.550Z,1019.30
2018-12-13T07:14:50.539Z,1019.27
2018-12-13T07:15:50.526Z,1019.25
2018-12-13T07:16:50.513Z,1019.24
2018-12-13T07:17:50.504Z,1019.24
2018-12-13T07:18:50.493Z,1019.30
2018-12-13T07:19:50.487Z,1019.28
2018-12-13T07:20:50.472Z,1019.28
2018-12-13T07:21:50.461Z,1019.29
2018-12-13T07:22:50.450Z,1019.30
2018-12-13T07:23:50.438Z,1019.32
2018-12-13T07:24:50.429Z,1019.40
2018-12-13T07:25:50.421Z,1019.47
2018-12-13T07:26:50.428Z,1019.57
2018-12-13T07:27:50.397Z,1019.55
2018-12-13T07:28:50.384Z,1019.58
2018-12-13T07:29:50.373Z,1019.60
2018-12-13T07:30:50.389Z,1019.60
2018-12-13T07:31:50.352Z,1019.61
2018-12-13T07:32:50.343Z,1019.58
2018-12-13T07:33:50.330Z,1019.64
2018-12-13T07:34:50.319Z,1019.63
2018-12-13T07:35:50.308Z,1019.63
2018-12-13T07:36:50.297Z,1019.66
2018-12-13T07:37:50.293Z,1019.65
2018-12-13T07:38:50.276Z,1019.61
2018-12-13T07:39:50.269Z,1019.63
2018-12-13T07:40:50.254Z,1019.60
2018-12-13T07:41:50.243Z,1019.62
2018-12-13T07:42:50.234Z,1019.65
2018-12-13T07:43:50.222Z,1019.65
2018-12-13T07:44:50.212Z,1019.65
2018-12-13T07:45:50.198Z,1019.65
2018-12-13T07:46:50.193Z,1019.62
2018-12-13T07:47:50.178Z,1019.59
2018-12-13T07:48:56.249Z,1019.60
2018-12-13T07:49:51.155Z,1019.65
2018-12-13T07:50:50.149Z,1019.63
2018-12-13T07:51:50.135Z,1019.59
2018-12-13T07:52:50.126Z,1019.61
2018-12-13T07:53:50.114Z,1019.64
2018-12-13T07:54:50.105Z,1019.57
2018-12-13T07:55:50.099Z,1019.58
2018-12-13T07:56:50.081Z,1019.60
2018-12-13T07:57:50.069Z,1019.61
2018-12-13T07:58:50.059Z,1019.57
2018-12-13T07:59:50.048Z,1019.60
2018-12-13T08:00:50.037Z,1019.62
2018-12-13T08:01:50.027Z,1019.64
2018-12-13T08:02:50.017Z,1019.64
2018-12-13T08:03:50.004Z,1019.65
2018-12-13T08:04:49.994Z,1019.67
2018-12-13T08:05:49.984Z,1019.64
2018-12-13T08:06:49.975Z,1019.63
2018-12-13T08:07:49.966Z,1019.65
2018-12-13T08:08:49.953Z,1019.65
2018-12-13T08:09:49.943Z,1019.68
2018-12-13T08:10:49.927Z,1019.63
2018-12-13T08:11:49.919Z,1019.62
2018-12-13T08:12:49.909Z,1019.64
2018-12-13T08:13:49.897Z,1019.61
2018-12-13T08:14:49.886Z,1019.58
2018-12-13T08:15:49.876Z,1019.50
2018-12-13T08:16:49.864Z,1019.52
2018-12-13T08:17:49.851Z,1019.57
2018-12-13T08:18:49.842Z,1019.54
2018-12-13T08:19:49.829Z,1019.55
2018-12-13T08:20:49.822Z,1019.51
2018-12-13T08:21:49.808Z,1019.53
2018-12-13T08:22:49.948Z,1019.51
2018-12-13T08:23:49.787Z,1019.48
2018-12-13T08:24:49.776Z,1019.53
2018-12-13T08:25:49.767Z,1019.47
2018-12-13T08:26:49.756Z,1019.48
2018-12-13T08:27:49.742Z,1019.51
2018-12-13T08:28:49.734Z,1019.44
2018-12-13T08:29:49.722Z,1019.43
2018-12-13T08:30:49.711Z,1019.39
2018-12-13T08:31:49.701Z,1019.41
2018-12-13T08:32:49.690Z,1019.43
2018-12-13T08:33:49.678Z,1019.41
2018-12-13T08:34:49.667Z,1019.44
2018-12-13T08:35:49.660Z,1019.45
2018-12-13T08:36:49.647Z,1019.39
2018-12-13T08:37:49.644Z,1019.42
2018-12-13T08:38:49.624Z,1019.42
2018-12-13T08:39:49.614Z,1019.43
2018-12-13T08:40:49.603Z,1019.40
2018-12-13T08:41:49.595Z,1019.44
2018-12-13T08:42:49.586Z,1019.43
2018-12-13T08:43:49.569Z,1019.38
2018-12-13T08:44:49.559Z,1019.43
2018-12-13T08:45:49.548Z,1019.39
2018-12-13T08:46:49.541Z,1019.39
2018-12-13T08:47:49.534Z,1019.45
2018-12-13T08:48:49.515Z,1019.41
2018-12-13T08:49:49.506Z,1019.46
2018-12-13T08:50:49.494Z,1019.46
2018-12-13T08:51:49.482Z,1019.45
2018-12-13T08:52:49.471Z,1019.48
2018-12-13T08:53:49.460Z,1019.53
2018-12-13T08:54:49.454Z,1019.49
2018-12-13T08:55:49.446Z,1019.44
2018-12-13T08:56:49.430Z,1019.52
2018-12-13T08:57:49.421Z,1019.48
2018-12-13T08:58:49.406Z,1019.49
2018-12-13T08:59:49.395Z,1019.49
2018-12-13T09:00:49.385Z,1019.48
2018-12-13T09:01:49.374Z,1019.44
2018-12-13T09:02:49.363Z,1019.44
2018-12-13T09:03:49.355Z,1019.45
2018-12-13T09:04:49.344Z,1019.41
2018-12-13T09:05:49.331Z,1019.39
2018-12-13T09:06:49.322Z,1019.42
2018-12-13T09:07:49.309Z,1019.44
2018-12-13T09:08:49.315Z,1019.41
2018-12-13T09:09:49.286Z,1019.48
2018-12-13T09:10:49.275Z,1019.51
2018-12-13T09:11:49.263Z,1019.56
2018-12-13T09:12:49.253Z,1019.52
2018-12-13T09:13:49.244Z,1019.54
2018-12-13T09:14:49.232Z,1019.53
2018-12-13T09:15:49.220Z,1019.52
2018-12-13T09:16:49.210Z,1019.52
2018-12-13T09:17:49.200Z,1019.54
2018-12-13T09:18:49.190Z,1019.52
2018-12-13T09:19:49.180Z,1019.51
2018-12-13T09:20:49.212Z,1019.48
2018-12-13T09:21:49.156Z,1019.49
2018-12-13T09:22:49.143Z,1019.46
2018-12-13T09:23:49.135Z,1019.49
2018-12-13T09:24:49.123Z,1019.51
2018-12-13T09:25:49.110Z,1019.51
2018-12-13T09:26:49.102Z,1019.55
2018-12-13T09:27:49.091Z,1019.55
2018-12-13T09:28:49.079Z,1019.55
2018-12-13T09:29:49.069Z,1019.56
2018-12-13T09:30:49.059Z,1019.53
2018-12-13T09:31:49.046Z,1019.56
2018-12-13T09:32:49.035Z,1019.55
2018-12-13T09:33:49.023Z,1019.50
2018-12-13T09:34:49.013Z,1019.53
2018-12-13T09:35:49.002Z,1019.52
2018-12-13T09:36:48.994Z,1019.52
2018-12-13T09:37:48.986Z,1019.50
2018-12-13T09:38:48.969Z,1019.54
2018-12-13T09:39:48.962Z,1019.46
2018-12-13T09:40:48.948Z,1019.48
2018-12-13T09:41:48.937Z,1019.49
2018-12-13T09:42:48.925Z,1019.48
2018-12-13T09:43:48.914Z,1019.50
2018-12-13T09:44:48.904Z,1019.44
2018-12-13T09:45:48.892Z,1019.49
2018-12-13T09:46:48.901Z,1019.40
2018-12-13T09:47:48.871Z,1019.43
2018-12-13T09:48:49.467Z,1019.42
2018-12-13T09:49:48.849Z,1019.46
2018-12-13T09:50:48.838Z,1019.42
2018-12-13T09:51:48.827Z,1019.42
2018-12-13T09:52:48.818Z,1019.45
2018-12-13T09:53:48.806Z,1019.41
2018-12-13T09:54:48.800Z,1019.37
2018-12-13T09:55:48.784Z,1019.45
2018-12-13T09:56:48.772Z,1019.40
2018-12-13T09:57:48.764Z,1019.41
2018-12-13T09:58:48.750Z,1019.39
2018-12-13T09:59:48.746Z,1019.36
2018-12-13T10:00:48.729Z,1019.38
2018-12-13T10:01:48.760Z,1019.32
2018-12-13T10:02:48.707Z,1019.35
2018-12-13T10:03:48.699Z,1019.36
2018-12-13T10:04:48.684Z,1019.29
2018-12-13T10:05:48.675Z,1019.28
2018-12-13T10:06:48.662Z,1019.26
2018-12-13T10:07:48.651Z,1019.28
2018-12-13T10:08:48.646Z,1019.25
2018-12-13T10:09:48.629Z,1019.22
2018-12-13T10:10:48.620Z,1019.21
2018-12-13T10:11:48.652Z,1019.24
2018-12-13T10:12:48.597Z,1019.28
2018-12-13T10:13:48.586Z,1019.26
2018-12-13T10:14:48.574Z,1019.26
2018-12-13T10:15:48.626Z,1019.26
2018-12-13T10:16:48.554Z,1019.25
2018-12-13T10:17:48.541Z,1019.25
2018-12-13T10:18:48.535Z,1019.22
2018-12-13T10:19:48.519Z,1019.26
2018-12-13T10:20:48.508Z,1019.25
2018-12-13T10:21:48.496Z,1019.22
2018-12-13T10:22:48.489Z,1019.25
2018-12-13T10:23:48.475Z,1019.19
2018-12-13T10:24:48.464Z,1019.20
2018-12-13T10:25:48.452Z,1019.15
2018-12-13T10:26:48.443Z,1019.18
2018-12-13T10:27:48.439Z,1019.17
2018-12-13T10:28:48.420Z,1019.16
2018-12-13T10:29:48.408Z,1019.15
2018-12-13T10:30:48.397Z,1019.13
2018-12-13T10:31:48.386Z,1019.11
2018-12-13T10:32:48.375Z,1019.12
2018-12-13T10:33:48.365Z,1019.14
2018-12-13T10:34:48.352Z,1019.12
2018-12-13T10:35:48.341Z,1019.07
2018-12-13T10:36:48.333Z,1019.13
2018-12-13T10:37:48.325Z,1019.09
2018-12-13T10:38:53.014Z,1019.08
2018-12-13T10:39:49.296Z,1019.06
2018-12-13T10:40:48.288Z,1019.03
2018-12-13T10:41:48.275Z,1019.06
2018-12-13T10:42:48.265Z,1019.02
2018-12-13T10:43:48.256Z,1019.04
2018-12-13T10:44:48.246Z,1019.02
2018-12-13T10:45:48.232Z,1018.97
2018-12-13T10:46:48.225Z,1018.97
2018-12-13T10:47:48.210Z,1019.00
2018-12-13T10:48:48.200Z,1018.91
2018-12-13T10:49:48.187Z,1018.91
2018-12-13T10:50:48.176Z,1018.93
2018-12-13T10:51:48.166Z,1018.96
2018-12-13T10:52:48.154Z,1018.92
2018-12-13T10:53:48.143Z,1018.93
2018-12-13T10:54:48.132Z,1018.87
2018-12-13T10:55:48.178Z,1018.95
2018-12-13T10:56:48.110Z,1018.89
2018-12-13T10:57:48.098Z,1018.95
2018-12-13T10:58:48.088Z,1018.93
2018-12-13T10:59:48.078Z,1018.87
2018-12-13T11:00:48.066Z,1018.88
2018-12-13T11:01:48.055Z,1018.89
2018-12-13T11:02:48.043Z,1018.88
2018-12-13T11:03:48.033Z,1018.89
2018-12-13T11:04:48.022Z,1018.86
2018-12-13T11:05:48.011Z,1018.88
2018-12-13T11:06:48.001Z,1018.88
2018-12-13T11:07:47.991Z,1018.84
2018-12-13T11:08:47.978Z,1018.85
2018-12-13T11:09:47.966Z,1018.87
2018-12-13T11:10:47.955Z,1018.84
2018-12-13T11:11:47.945Z,1018.87
2018-12-13T11:12:47.935Z,1018.86
2018-12-13T11:13:47.923Z,1018.85
2018-12-13T11:14:47.913Z,1018.83
2018-12-13T11:15:47.899Z,1018.83
2018-12-13T11:16:47.889Z,1018.82
2018-12-13T11:17:47.878Z,1018.84
2018-12-13T11:18:47.870Z,1018.86
2018-12-13T11:19:47.855Z,1018.88
2018-12-13T11:20:47.844Z,1018.91
2018-12-13T11:21:47.835Z,1018.89
2018-12-13T11:22:47.823Z,1018.88
2018-12-13T11:23:47.813Z,1018.88
2018-12-13T11:24:47.802Z,1018.85
2018-12-13T11:25:47.793Z,1018.80
2018-12-13T11:26:47.782Z,1018.86
2018-12-13T11:27:47.767Z,1018.84
2018-12-13T11:28:47.755Z,1018.84
2018-12-13T11:29:47.748Z,1018.87
2018-12-13T11:30:47.734Z,1018.90
2018-12-13T11:31:47.724Z,1018.84
2018-12-13T11:32:47.712Z,1018.95
2018-12-13T11:33:47.702Z,1018.95
2018-12-13T11:34:47.694Z,1018.93
2018-12-13T11:35:47.683Z,1018.93
2018-12-13T11:36:47.669Z,1018.96
2018-12-13T11:37:47.658Z,1018.97
2018-12-13T11:38:47.647Z,1018.94
2018-12-13T11:39:47.638Z,1018.94
2018-12-13T11:40:47.627Z,1018.96
2018-12-13T11:41:47.617Z,1018.95
2018-12-13T11:42:47.604Z,1018.92
2018-12-13T11:43:47.595Z,1018.91
2018-12-13T11:44:47.582Z,1018.89
2018-12-13T11:45:47.571Z,1018.90
2018-12-13T11:46:47.562Z,1018.94
2018-12-13T11:47:47.551Z,1018.89
2018-12-13T11:48:47.541Z,1018.83
2018-12-13T11:49:47.533Z,1018.87
2018-12-13T11:50:47.517Z,1018.87
2018-12-13T11:51:47.513Z,1018.84
2018-12-13T11:52:47.495Z,1018.84
2018-12-13T11:53:47.484Z,1018.84
2018-12-13T11:54:47.473Z,1018.87
2018-12-13T11:55:47.464Z,1018.85
2018-12-13T11:56:47.453Z,1018.86
2018-12-13T11:57:47.441Z,1018.90
2018-12-13T11:58:47.431Z,1018.94
2018-12-13T11:59:47.420Z,1018.90
2018-12-13T12:00:47.407Z,1018.91
2018-12-13T12:01:47.397Z,1018.96
2018-12-13T12:02:47.391Z,1018.90
2018-12-13T12:03:47.376Z,1018.92
2018-12-13T12:04:47.370Z,1018.85
2018-12-13T12:05:47.357Z,1018.88
2018-12-13T12:06:47.343Z,1018.88
2018-12-13T12:07:47.334Z,1018.93
2018-12-13T12:08:47.328Z,1018.88
2018-12-13T12:09:47.320Z,1018.90